Time;durP1;ratioP1;P1;durP2;ratioP2;P2;SDS_P1;SDS_P2;PMS_P1;PMS_P2;Temp;Humidity;BMP_temperature;BMP_pressure;BME280_temperature;BME280_humidity;BME280_pressure;Samples;Min_cycle;Max_cycle;Signal;HPM_P1;HPM_P2
2023/02/26 00:01:36;;;;;;;1.70;1.60;;;;;;;3.21;100.00;98286.38;5032600;28;20659;-76
2023/02/26 00:04:04;;;;;;;2.13;1.63;;;;;;;3.08;100.00;98293.28;5011945;28;20914;-76
2023/02/26 00:06:33;;;;;;;1.73;1.63;;;;;;;3.08;100.00;98303.84;5048900;22;20234;-86
2023/02/26 00:09:03;;;;;;;2.07;1.60;;;;;;;3.19;100.00;98312.22;5008290;28;20195;-84
2023/02/26 00:11:31;;;;;;;1.50;1.40;;;;;;;3.20;100.00;98324.44;4997305;28;20198;-84
2023/02/26 00:14:00;;;;;;;1.83;1.73;;;;;;;3.15;100.00;98321.56;5027598;28;20206;-83
2023/02/26 00:16:30;;;;;;;1.80;1.70;;;;;;;3.10;100.00;98343.34;5011534;28;20590;-82
2023/02/26 00:19:03;;;;;;;1.90;1.53;;;;;;;3.08;100.00;98343.56;5009451;28;20221;-82
2023/02/26 00:21:32;;;;;;;2.13;1.73;;;;;;;3.17;100.00;98336.25;5025870;28;20300;-84
2023/02/26 00:24:00;;;;;;;2.27;1.90;;;;;;;3.17;100.00;98346.03;4975230;28;20410;-84
2023/02/26 00:26:30;;;;;;;1.63;1.53;;;;;;;3.22;100.00;98347.00;5008907;28;20222;-83
2023/02/26 00:29:02;;;;;;;1.60;1.50;;;;;;;3.05;100.00;98348.44;5024682;28;20279;-82
2023/02/26 00:31:29;;;;;;;1.97;1.77;;;;;;;3.06;100.00;98345.59;4992603;28;20210;-85
2023/02/26 00:33:57;;;;;;;1.87;1.77;;;;;;;3.08;100.00;98332.16;5009309;28;20194;-81
2023/02/26 00:36:45;;;;;;;2.37;1.70;;;;;;;3.02;100.00;98317.91;5008559;28;20742;-84
2023/02/26 00:39:25;;;;;;;1.67;1.57;;;;;;;3.16;100.00;98305.50;5024223;28;20311;-83
2023/02/26 00:41:52;;;;;;;1.73;1.63;;;;;;;3.05;100.00;98277.00;5009439;28;20639;-84
2023/02/26 00:44:19;;;;;;;2.23;1.60;;;;;;;3.05;100.00;98261.94;5009884;28;20194;-85
2023/02/26 00:47:07;;;;;;;2.00;1.80;;;;;;;2.94;100.00;98257.25;5011068;28;20206;-83
2023/02/26 00:49:47;;;;;;;2.63;1.73;;;;;;;2.96;100.00;98251.75;5005093;28;20198;-86
2023/02/26 00:52:25;;;;;;;1.87;1.73;;;;;;;2.86;100.00;98240.78;5013643;28;20671;-83
2023/02/26 00:55:03;;;;;;;1.70;1.60;;;;;;;2.90;100.00;98245.44;5008439;28;20194;-83
2023/02/26 00:57:33;;;;;;;1.93;1.70;;;;;;;2.79;100.00;98238.16;5008260;28;20395;-84
2023/02/26 01:00:07;;;;;;;2.30;2.10;;;;;;;2.82;100.00;98235.09;4991459;28;20201;-83
2023/02/26 01:02:44;;;;;;;2.00;1.80;;;;;;;2.78;100.00;98231.22;5014482;28;20213;-85
2023/02/26 01:05:12;;;;;;;1.67;1.57;;;;;;;2.78;100.00;98241.81;5008812;28;20194;-83
2023/02/26 01:07:50;;;;;;;2.10;1.90;;;;;;;2.74;100.00;98251.16;5010550;28;20236;-82
2023/02/26 01:10:22;;;;;;;2.10;1.90;;;;;;;2.67;100.00;98252.97;4994897;28;20744;-83
2023/02/26 01:12:52;;;;;;;2.77;1.80;;;;;;;2.72;100.00;98269.06;5010215;28;20186;-84
2023/02/26 01:15:27;;;;;;;2.23;2.03;;;;;;;2.80;100.00;98265.41;5009231;28;20745;-81
2023/02/26 01:18:14;;;;;;;2.53;2.33;;;;;;;2.80;100.00;98276.00;5009880;28;20204;-82
2023/02/26 01:20:50;;;;;;;2.73;2.37;;;;;;;2.64;100.00;98296.53;4990917;28;20621;-83
2023/02/26 01:23:37;;;;;;;2.40;2.20;;;;;;;2.73;100.00;98314.84;4997847;28;20193;-83
2023/02/26 01:26:28;;;;;;;;;;;;;;;;;;;;;
2023/02/26 01:29:06;;;;;;;2.33;2.13;;;;;;;2.58;100.00;98315.81;5007788;28;20295;-83
2023/02/26 01:31:48;;;;;;;2.10;1.90;;;;;;;2.49;100.00;98324.94;5002199;28;20194;-82
2023/02/26 01:34:31;;;;;;;2.70;2.13;;;;;;;2.62;100.00;98322.34;5008599;28;20186;-82
2023/02/26 01:37:09;;;;;;;2.80;2.50;;;;;;;2.50;100.00;98331.88;5008333;28;20191;-83
2023/02/26 01:40:02;;;;;;;2.40;2.20;;;;;;;2.64;100.00;98316.84;4987969;28;20229;-82
2023/02/26 01:42:34;;;;;;;2.57;2.30;;;;;;;2.60;100.00;98318.28;4984493;28;20198;-84
2023/02/26 01:45:09;;;;;;;3.50;2.40;;;;;;;2.41;100.00;98319.03;5008266;28;20194;-84
2023/02/26 01:48:17;;;;;;;2.63;2.43;;;;;;;2.37;100.00;98316.00;5008584;28;20303;-82
2023/02/26 01:50:51;;;;;;;2.60;2.33;;;;;;;2.46;100.00;98320.06;4966458;28;20217;-82
2023/02/26 01:53:26;;;;;;;3.07;2.77;;;;;;;2.40;100.00;98312.94;5004288;28;20316;-82
2023/02/26 01:56:03;;;;;;;2.23;2.03;;;;;;;2.40;100.00;98309.47;5012729;28;20252;-82
2023/02/26 01:58:35;;;;;;;2.27;2.07;;;;;;;2.30;100.00;98322.25;4996265;28;20576;-82
2023/02/26 02:01:03;;;;;;;2.50;2.20;;;;;;;2.41;100.00;98332.25;4995569;28;20216;-82
2023/02/26 02:03:35;;;;;;;2.40;2.20;;;;;;;2.21;100.00;98337.47;5013856;28;20360;-84
2023/02/26 02:06:11;;;;;;;2.60;2.40;;;;;;;2.30;100.00;98324.88;4995913;28;20721;-81
2023/02/26 02:08:38;;;;;;;2.97;2.10;;;;;;;2.35;100.00;98333.84;5010343;28;20245;-85
2023/02/26 02:11:07;;;;;;;3.27;2.67;;;;;;;2.26;100.00;98342.97;5002242;28;20205;-82
2023/02/26 02:14:00;;;;;;;2.50;2.30;;;;;;;2.24;100.00;98345.00;5001984;28;20213;-83
2023/02/26 02:16:46;;;;;;;2.70;2.33;;;;;;;2.15;100.00;98349.63;4998637;28;20300;-84
2023/02/26 02:19:32;;;;;;;2.83;2.57;;;;;;;2.20;100.00;98347.22;5012672;28;20209;-82
2023/02/26 02:22:25;;;;;;;2.80;2.50;;;;;;;2.24;100.00;98336.28;5011137;28;20197;-80
2023/02/26 02:25:13;;;;;;;2.97;2.37;;;;;;;2.27;100.00;98331.41;5006366;28;20234;-82
2023/02/26 02:28:07;;;;;;;2.43;2.17;;;;;;;2.20;100.00;98331.38;5010663;28;20317;-81
2023/02/26 02:31:05;;;;;;;3.03;2.50;;;;;;;2.23;100.00;98351.31;5013307;28;20694;-85
2023/02/26 02:33:59;;;;;;;2.30;2.10;;;;;;;2.13;100.00;98372.00;5011877;28;20582;-83
2023/02/26 02:36:39;;;;;;;2.63;2.10;;;;;;;2.01;100.00;98368.25;4996931;28;20217;-83
2023/02/26 02:39:33;;;;;;;2.20;2.00;;;;;;;2.15;100.00;98367.31;5013393;28;20186;-83
2023/02/26 02:42:07;;;;;;;2.63;1.87;;;;;;;2.06;100.00;98357.94;5011926;28;20279;-82
2023/02/26 02:44:38;;;;;;;1.90;1.80;;;;;;;2.03;100.00;98377.63;5006390;28;20677;-83
2023/02/26 02:47:20;;;;;;;2.13;1.90;;;;;;;2.07;100.00;98378.88;5018244;28;20221;-81
2023/02/26 02:50:04;;;;;;;2.13;1.80;;;;;;;2.01;100.00;98379.66;5014636;28;20194;-83
2023/02/26 02:52:34;;;;;;;2.20;1.80;;;;;;;2.10;100.00;98380.31;4995708;28;20205;-82
2023/02/26 02:55:11;;;;;;;2.07;1.70;;;;;;;2.17;100.00;98389.91;4993748;28;20201;-85
2023/02/26 02:57:47;;;;;;;2.27;2.07;;;;;;;2.02;100.00;98391.03;4999776;28;20320;-84
2023/02/26 03:00:23;;;;;;;1.97;1.77;;;;;;;1.91;100.00;98391.59;5000418;28;20210;-82
2023/02/26 03:02:58;;;;;;;1.60;1.50;;;;;;;1.90;100.00;98382.84;5010866;28;20202;-82
2023/02/26 03:05:28;;;;;;;1.87;1.73;;;;;;;1.95;100.00;98384.91;4998070;28;20260;-82
2023/02/26 03:08:10;;;;;;;1.93;1.80;;;;;;;1.93;100.00;98392.19;5013668;28;20249;-81
2023/02/26 03:10:38;;;;;;;2.40;1.90;;;;;;;2.03;100.00;98408.53;4997697;28;20201;-84
2023/02/26 03:13:05;;;;;;;1.90;1.70;;;;;;;2.02;100.00;98409.53;4977379;28;20221;-81
2023/02/26 03:15:46;;;;;;;1.83;1.53;;;;;;;2.00;100.00;98432.69;5006944;28;20233;-82
2023/02/26 03:18:42;;;;;;;2.23;1.80;;;;;;;1.90;100.00;98434.84;4998201;28;20399;-82
2023/02/26 03:21:32;;;;;;;2.10;1.90;;;;;;;1.91;100.00;98437.31;4988110;28;20263;-86
2023/02/26 03:24:20;;;;;;;1.73;1.63;;;;;;;1.96;100.00;98434.88;4995155;28;20209;-85
2023/02/26 03:26:55;;;;;;;2.00;1.80;;;;;;;1.84;100.00;98419.78;4996427;28;20206;-83
2023/02/26 03:29:46;;;;;;;2.00;1.80;;;;;;;2.04;100.00;98424.19;5016874;28;20609;-86
2023/02/26 03:32:53;;;;;;;1.83;1.73;;;;;;;2.12;100.00;98426.66;5007016;28;20304;-82
2023/02/26 03:35:32;;;;;;;2.00;1.73;;;;;;;2.12;100.00;98426.66;4993954;28;20245;-83
2023/02/26 03:38:02;;;;;;;2.13;1.93;;;;;;;1.97;100.00;98430.41;4999207;28;21100;-82
2023/02/26 03:41:02;;;;;;;2.77;2.10;;;;;;;2.07;100.00;98442.28;5000624;28;20215;-83
2023/02/26 03:43:59;;;;;;;2.30;2.10;;;;;;;2.02;100.00;98443.88;4973321;28;20691;-82
2023/02/26 03:46:33;;;;;;;2.00;1.90;;;;;;;2.03;100.00;98450.78;5015664;28;20222;-83
2023/02/26 03:49:04;;;;;;;3.03;1.87;;;;;;;2.01;100.00;98440.41;4997542;28;20213;-82
2023/02/26 03:51:32;;;;;;;2.33;2.10;;;;;;;1.99;100.00;98445.09;5005423;28;20646;-82
2023/02/26 03:54:35;;;;;;;1.90;1.80;;;;;;;2.09;100.00;98460.59;5013335;28;21242;-82
2023/02/26 03:57:25;;;;;;;2.07;1.80;;;;;;;1.99;100.00;98474.16;5009039;28;20251;-84
2023/02/26 04:00:09;;;;;;;2.47;2.20;;;;;;;1.95;100.00;98475.53;5022404;28;20999;-84
2023/02/26 04:02:50;;;;;;;2.30;2.10;;;;;;;1.93;100.00;98474.91;5010714;28;20289;-84
2023/02/26 04:05:23;;;;;;;2.40;2.17;;;;;;;1.90;100.00;98475.31;5022135;28;20227;-82
2023/02/26 04:07:53;;;;;;;2.40;2.20;;;;;;;1.94;100.00;98486.28;4992432;28;20295;-82
2023/02/26 04:10:28;;;;;;;2.10;2.00;;;;;;;1.89;100.00;98499.25;5014331;28;20655;-85
2023/02/26 04:12:59;;;;;;;2.20;2.00;;;;;;;1.70;100.00;98500.72;5013628;28;20271;-82
2023/02/26 04:15:30;;;;;;;2.30;2.10;;;;;;;1.80;100.00;98493.31;5011680;28;20204;-83
2023/02/26 04:18:01;;;;;;;3.00;2.10;;;;;;;1.83;100.00;98494.72;4997442;28;20210;-81
2023/02/26 04:20:31;;;;;;;1.97;1.87;;;;;;;1.92;100.00;98502.31;5019770;28;20193;-84
2023/02/26 04:23:03;;;;;;;2.30;2.10;;;;;;;1.88;100.00;98508.19;4992659;28;20209;-85
2023/02/26 04:25:32;;;;;;;2.40;2.20;;;;;;;1.81;100.00;98500.22;4992408;28;20202;-82
2023/02/26 04:28:02;;;;;;;2.37;2.17;;;;;;;1.83;100.00;98498.19;5003318;28;20214;-84
2023/02/26 04:30:32;;;;;;;3.63;1.80;;;;;;;1.93;100.00;98506.59;4991585;28;20754;-84
2023/02/26 04:33:00;;;;;;;2.20;2.00;;;;;;;1.83;100.00;98510.56;4997923;28;20301;-82
2023/02/26 04:35:28;;;;;;;2.30;2.10;;;;;;;1.91;100.00;98508.63;5017746;28;20289;-84
2023/02/26 04:37:58;;;;;;;2.20;2.00;;;;;;;1.91;100.00;98507.81;5022714;28;20197;-81
2023/02/26 04:40:26;;;;;;;2.03;1.83;;;;;;;1.87;100.00;98517.91;5011497;28;20408;-82
2023/02/26 04:42:56;;;;;;;2.03;1.87;;;;;;;1.94;100.00;98515.34;5019902;28;20632;-85
2023/02/26 04:45:25;;;;;;;1.77;1.67;;;;;;;1.94;100.00;98515.34;5001710;28;20202;-86
2023/02/26 04:47:57;;;;;;;1.80;1.70;;;;;;;1.98;100.00;98519.22;5010821;28;20213;-82
2023/02/26 04:50:33;;;;;;;2.00;1.90;;;;;;;2.08;100.00;98512.63;5015711;28;20287;-82
2023/02/26 04:53:06;;;;;;;1.80;1.70;;;;;;;2.04;100.00;98510.56;5015500;28;20212;-82
2023/02/26 04:55:40;;;;;;;1.90;1.80;;;;;;;1.99;100.00;98507.66;4972855;28;20286;-84
2023/02/26 04:58:18;;;;;;;1.83;1.73;;;;;;;1.89;100.00;98505.34;5001319;28;20221;-85
2023/02/26 05:00:53;;;;;;;2.63;1.90;;;;;;;1.89;100.00;98499.25;4992233;28;20810;-83
2023/02/26 05:03:23;;;;;;;2.00;1.90;;;;;;;1.85;100.00;98512.03;5008361;28;20208;-84
2023/02/26 05:05:51;;;;;;;1.90;1.80;;;;;;;2.00;100.00;98511.94;5007718;28;20479;-84
2023/02/26 05:08:29;;;;;;;2.33;2.00;;;;;;;2.00;100.00;98523.34;5010548;28;20364;-81
2023/02/26 05:10:57;;;;;;;2.07;1.97;;;;;;;2.00;100.00;98531.25;4991281;28;20201;-86
2023/02/26 05:13:29;;;;;;;1.80;1.70;;;;;;;2.11;100.00;98529.91;5002047;28;20660;-82
2023/02/26 05:16:00;;;;;;;2.10;1.90;;;;;;;2.07;100.00;98533.94;5018903;28;20224;-82
2023/02/26 05:18:31;;;;;;;2.00;1.90;;;;;;;1.95;100.00;98541.59;5014047;28;20198;-82
2023/02/26 05:21:01;;;;;;;2.10;1.90;;;;;;;2.00;100.00;98530.44;5014954;28;20205;-84
2023/02/26 05:23:36;;;;;;;2.30;2.10;;;;;;;1.98;100.00;98525.34;5012952;28;20198;-83
2023/02/26 05:26:03;;;;;;;2.30;2.10;;;;;;;1.94;100.00;98525.91;5014423;28;20652;-82
2023/02/26 05:28:30;;;;;;;2.60;2.10;;;;;;;1.95;100.00;98549.50;4996938;28;20228;-81
2023/02/26 05:31:02;;;;;;;2.37;2.17;;;;;;;1.89;100.00;98542.34;5019823;28;20418;-86
2023/02/26 05:33:30;;;;;;;2.00;1.83;;;;;;;1.86;100.00;98558.56;4994894;28;20216;-83
2023/02/26 05:35:59;;;;;;;2.20;2.00;;;;;;;1.77;100.00;98562.34;5000557;28;20193;-81
2023/02/26 05:38:28;;;;;;;2.20;2.07;;;;;;;1.75;100.00;98562.53;4994947;28;20210;-80
2023/02/26 05:41:00;;;;;;;2.53;2.33;;;;;;;1.74;100.00;98571.44;5012987;28;20218;-82
2023/02/26 05:43:29;;;;;;;2.60;2.40;;;;;;;1.64;100.00;98573.59;5011926;28;20194;-84
2023/02/26 05:45:57;;;;;;;2.83;2.07;;;;;;;1.54;100.00;98575.72;5011478;28;20194;-82
2023/02/26 05:48:27;;;;;;;3.13;2.73;;;;;;;1.67;100.00;98583.78;4995654;28;20257;-82
2023/02/26 05:50:59;;;;;;;2.70;2.50;;;;;;;1.65;100.00;98591.06;5015911;28;20206;-82
2023/02/26 05:53:28;;;;;;;2.90;2.70;;;;;;;1.71;100.00;98598.25;4986088;28;20202;-83
2023/02/26 05:56:00;;;;;;;2.60;2.40;;;;;;;1.80;100.00;98600.75;4997889;28;21181;-82
2023/02/26 05:58:32;;;;;;;2.70;2.50;;;;;;;1.75;100.00;98599.50;5012903;28;20222;-84
2023/02/26 06:01:01;;;;;;;2.80;2.60;;;;;;;1.83;100.00;98610.94;5016532;28;20458;-82
2023/02/26 06:03:27;;;;;;;3.77;2.90;;;;;;;1.77;100.00;98609.88;5010857;28;20217;-83
2023/02/26 06:05:59;;;;;;;3.20;2.90;;;;;;;1.72;100.00;98615.75;5010830;28;20301;-83
2023/02/26 06:08:31;;;;;;;3.10;2.80;;;;;;;1.70;100.00;98619.56;5012549;28;20237;-80
2023/02/26 06:11:03;;;;;;;3.70;3.30;;;;;;;1.82;100.00;98633.88;5001346;28;20209;-81
2023/02/26 06:13:31;;;;;;;2.93;2.73;;;;;;;1.71;100.00;98634.41;5000580;28;20275;-82
2023/02/26 06:15:57;;;;;;;2.90;2.70;;;;;;;1.68;100.00;98646.13;4993878;28;20205;-81
2023/02/26 06:18:24;;;;;;;3.30;3.00;;;;;;;1.73;100.00;98642.94;5012245;28;20187;-84
2023/02/26 06:20:54;;;;;;;3.20;3.00;;;;;;;1.91;100.00;98635.44;5017798;28;20728;-84
2023/02/26 06:23:37;;;;;;;4.27;3.20;;;;;;;1.92;100.00;98637.03;5010847;28;20269;-82
2023/02/26 06:26:05;;;;;;;3.83;3.43;;;;;;;2.01;100.00;98645.66;5012346;28;20720;-82
2023/02/26 06:28:35;;;;;;;3.20;2.83;;;;;;;1.99;100.00;98650.31;5013319;28;20316;-84
2023/02/26 06:31:05;;;;;;;3.10;2.80;;;;;;;2.08;100.00;98651.84;5010892;28;20678;-84
2023/02/26 06:33:32;;;;;;;3.10;2.80;;;;;;;2.05;100.00;98644.28;5015145;28;20745;-81
2023/02/26 06:35:59;;;;;;;3.20;2.90;;;;;;;2.10;100.00;98644.53;5012079;28;20554;-83
2023/02/26 06:38:26;;;;;;;3.07;2.80;;;;;;;2.10;100.00;98644.53;4997495;28;20236;-82
2023/02/26 06:40:53;;;;;;;3.50;3.20;;;;;;;2.14;100.00;98651.91;5016477;28;20935;-81
2023/02/26 06:43:20;;;;;;;3.07;2.77;;;;;;;2.19;100.00;98664.56;5015262;28;20201;-83
2023/02/26 06:45:50;;;;;;;3.50;3.20;;;;;;;2.22;100.00;98667.63;5014101;28;20198;-83
2023/02/26 06:48:18;;;;;;;3.47;3.07;;;;;;;2.32;100.00;98663.84;5016592;28;20222;-86
2023/02/26 06:50:49;;;;;;;3.50;3.20;;;;;;;2.33;100.00;98658.38;5007195;28;20655;-83
2023/02/26 06:53:15;;;;;;;3.10;2.80;;;;;;;2.40;100.00;98656.59;5012295;28;20467;-81
2023/02/26 06:55:44;;;;;;;3.20;2.87;;;;;;;2.32;100.00;98663.84;5015802;28;20190;-84
2023/02/26 06:58:11;;;;;;;3.37;3.07;;;;;;;2.33;100.00;98662.84;5011619;28;20206;-82
2023/02/26 07:00:42;;;;;;;3.40;3.10;;;;;;;2.42;100.00;98670.44;4993556;28;20220;-83
2023/02/26 07:03:16;;;;;;;3.20;2.90;;;;;;;2.45;100.00;98675.34;4977586;28;20191;-82
2023/02/26 07:05:47;;;;;;;3.00;2.77;;;;;;;2.60;100.00;98678.72;5010144;28;20604;-82
2023/02/26 07:08:15;;;;;;;3.43;3.13;;;;;;;2.50;100.00;98677.41;5009349;28;20233;-85
2023/02/26 07:10:44;;;;;;;3.03;2.83;;;;;;;2.54;100.00;98683.94;5010605;28;20202;-82
2023/02/26 07:13:12;;;;;;;3.53;3.23;;;;;;;2.61;100.00;98692.78;5010668;28;20721;-84
2023/02/26 07:15:46;;;;;;;3.33;3.03;;;;;;;2.77;100.00;98699.59;4993622;28;20217;-82
2023/02/26 07:18:27;;;;;;;3.37;3.07;;;;;;;2.85;100.00;98707.38;4994021;28;20634;-83
2023/02/26 07:20:54;;;;;;;3.00;2.80;;;;;;;2.80;100.00;98702.66;4991508;28;20677;-83
2023/02/26 07:23:20;;;;;;;2.93;2.73;;;;;;;2.66;100.00;98707.03;4993344;28;20212;-81
2023/02/26 07:25:48;;;;;;;3.00;2.80;;;;;;;2.66;100.00;98722.91;5009325;28;20206;-83
2023/02/26 07:28:23;;;;;;;3.30;3.00;;;;;;;2.83;100.00;98727.94;5013656;28;20332;-79
2023/02/26 07:30:56;;;;;;;3.00;2.80;;;;;;;2.88;100.00;98723.69;5008644;28;20291;-82
2023/02/26 07:33:27;;;;;;;3.30;3.00;;;;;;;2.75;100.00;98723.59;5008765;28;20232;-83
2023/02/26 07:35:57;;;;;;;3.03;2.83;;;;;;;3.09;100.00;98728.94;5009581;28;20198;-82
2023/02/26 07:38:26;;;;;;;3.27;3.07;;;;;;;3.04;100.00;98727.88;4998077;28;20198;-82
2023/02/26 07:40:56;;;;;;;3.20;2.90;;;;;;;3.38;100.00;98727.06;5008364;28;20241;-82
2023/02/26 07:43:23;;;;;;;2.73;2.53;;;;;;;3.36;100.00;98721.94;5009189;28;20194;-83
2023/02/26 07:45:50;;;;;;;2.70;2.50;;;;;;;3.19;100.00;98725.94;5008718;28;20249;-81
2023/02/26 07:48:28;;;;;;;3.00;2.60;;;;;;;3.26;100.00;98724.16;4985638;28;20636;-81
2023/02/26 07:50:58;;;;;;;2.90;2.70;;;;;;;3.03;100.00;98724.41;5006723;28;20666;-81
2023/02/26 07:53:27;;;;;;;2.63;2.43;;;;;;;3.26;100.00;98736.56;5009747;28;20724;-81
2023/02/26 07:55:56;;;;;;;2.70;2.50;;;;;;;3.20;100.00;98737.34;4976662;28;20664;-84
2023/02/26 07:58:23;;;;;;;2.80;2.60;;;;;;;3.32;100.00;98730.47;5010182;28;20210;-81
2023/02/26 08:00:51;;;;;;;2.57;2.37;;;;;;;3.57;100.00;98731.66;5010528;28;20202;-84
2023/02/26 08:03:19;;;;;;;2.50;2.30;;;;;;;3.41;100.00;98734.59;5009626;28;20195;-86
2023/02/26 08:05:48;;;;;;;2.37;2.17;;;;;;;3.47;100.00;98736.47;5018034;28;20654;-83
2023/02/26 08:08:19;;;;;;;2.17;2.07;;;;;;;3.67;100.00;98736.59;5014741;28;20230;-82
2023/02/26 08:10:46;;;;;;;2.70;2.50;;;;;;;3.91;100.00;98749.31;5022869;28;20204;-82
2023/02/26 08:13:20;;;;;;;2.60;2.40;;;;;;;3.92;100.00;98748.28;4997873;28;20260;-82
2023/02/26 08:15:50;;;;;;;2.60;2.40;;;;;;;4.02;100.00;98747.91;5013011;28;20874;-83
2023/02/26 08:18:17;;;;;;;2.90;2.70;;;;;;;3.94;100.00;98765.66;5011965;28;20190;-84
2023/02/26 08:20:46;;;;;;;3.37;2.83;;;;;;;4.07;100.00;98762.22;5000639;28;20197;-88
2023/02/26 08:23:13;;;;;;;2.70;2.50;;;;;;;4.23;100.00;98775.13;5013696;28;20204;-84
2023/02/26 08:25:45;;;;;;;3.07;2.87;;;;;;;4.12;100.00;98775.69;4983706;28;20202;-82
2023/02/26 08:28:12;;;;;;;3.47;2.97;;;;;;;4.28;100.00;98775.34;4997536;28;20689;-83
2023/02/26 08:30:41;;;;;;;2.63;2.43;;;;;;;4.27;100.00;98786.97;4985748;28;20201;-82
2023/02/26 08:33:11;;;;;;;2.83;2.63;;;;;;;4.11;100.00;98775.88;5024617;28;20217;-82
2023/02/26 08:35:38;;;;;;;3.87;2.90;;;;;;;4.24;100.00;98789.22;5017506;28;20348;-83
2023/02/26 08:38:11;;;;;;;2.93;2.73;;;;;;;4.12;100.00;98786.28;4995855;28;20741;-86
2023/02/26 08:40:44;;;;;;;2.63;2.43;;;;;;;4.11;100.00;98787.31;5004010;28;20748;-83
2023/02/26 08:43:12;;;;;;;2.60;2.40;;;;;;;4.40;100.00;98783.53;5017291;28;20205;-82
2023/02/26 08:45:39;;;;;;;2.33;2.13;;;;;;;4.41;96.41;98791.28;5012043;28;20249;-84
2023/02/26 08:48:07;;;;;;;2.43;2.23;;;;;;;4.16;97.93;98789.34;4981937;28;20436;-82
2023/02/26 08:50:36;;;;;;;2.70;2.50;;;;;;;4.16;97.87;98799.97;5013820;28;20198;-83
2023/02/26 08:53:06;;;;;;;2.33;2.13;;;;;;;4.10;96.02;98800.78;4993294;28;20417;-84
2023/02/26 08:55:32;;;;;;;2.53;2.33;;;;;;;4.11;95.29;98791.78;5011193;28;20202;-84
2023/02/26 08:57:59;;;;;;;2.80;2.47;;;;;;;4.00;94.91;98809.09;5015457;28;20504;-83
2023/02/26 09:00:27;;;;;;;4.93;3.70;;;;;;;4.05;95.95;98797.91;4997142;28;20309;-82
2023/02/26 09:02:54;;;;;;;5.00;4.10;;;;;;;4.27;96.68;98810.00;5012457;28;20276;-83
2023/02/26 09:05:25;;;;;;;2.60;2.37;;;;;;;4.54;94.82;98822.31;4997891;28;20680;-85
2023/02/26 09:07:56;;;;;;;2.80;2.40;;;;;;;4.23;92.39;98812.25;5014574;28;20439;-86
2023/02/26 09:10:31;;;;;;;2.87;2.57;;;;;;;4.39;93.96;98811.88;4998870;28;20293;-82
2023/02/26 09:13:01;;;;;;;2.37;2.17;;;;;;;4.74;90.01;98817.06;4997655;28;20308;-85
2023/02/26 09:15:29;;;;;;;1.90;1.80;;;;;;;4.58;88.77;98810.28;5014111;28;20189;-84
2023/02/26 09:17:57;;;;;;;2.03;1.93;;;;;;;4.41;89.08;98824.94;4978123;28;20217;-82
2023/02/26 09:20:28;;;;;;;2.20;1.90;;;;;;;4.92;88.37;98813.81;4992754;28;20199;-82
2023/02/26 09:22:58;;;;;;;2.07;1.83;;;;;;;5.18;86.92;98819.94;5011967;28;20193;-83
2023/02/26 09:25:27;;;;;;;1.80;1.70;;;;;;;5.18;84.00;98821.81;4993781;28;20194;-84
2023/02/26 09:27:58;;;;;;;1.90;1.70;;;;;;;5.38;83.64;98825.25;4990100;28;20219;-82
2023/02/26 09:30:28;;;;;;;1.70;1.60;;;;;;;5.87;82.30;98829.31;4987579;28;20542;-85
2023/02/26 09:33:02;;;;;;;2.33;1.97;;;;;;;5.23;82.80;98830.78;5008870;28;20194;-85
2023/02/26 09:35:31;;;;;;;2.87;1.80;;;;;;;5.40;85.11;98833.03;5011471;28;20187;-85
2023/02/26 09:37:58;;;;;;;2.30;1.70;;;;;;;5.49;84.53;98843.25;4991986;28;20562;-87
2023/02/26 09:40:46;;;;;;;1.83;1.63;;;;;;;5.43;82.52;98843.22;5020607;28;20595;-84
2023/02/26 09:43:42;;;;;;;1.73;1.63;;;;;;;5.04;82.59;98852.81;5011590;28;20194;-83
2023/02/26 09:46:47;;;;;;;1.77;1.60;;;;;;;4.98;84.59;98869.59;5007633;28;20205;-85
2023/02/26 09:49:34;;;;;;;1.93;1.60;;;;;;;4.53;83.95;98860.47;5002484;28;20327;-84
2023/02/26 09:52:22;;;;;;;1.70;1.47;;;;;;;4.82;83.20;98875.25;4997321;28;20672;-85
2023/02/26 09:55:19;;;;;;;1.90;1.70;;;;;;;4.21;83.78;98869.94;4997387;28;20338;-82
2023/02/26 09:57:51;;;;;;;1.53;1.30;;;;;;;4.72;83.36;98878.28;4993764;28;20777;-83
2023/02/26 10:00:42;;;;;;;1.53;1.40;;;;;;;4.77;82.81;98883.00;4979759;28;20208;-85
2023/02/26 10:03:25;;;;;;;1.40;1.30;;;;;;;4.57;81.50;98890.09;5007719;28;21076;-83
2023/02/26 10:06:07;;;;;;;1.70;1.50;;;;;;;4.31;82.56;98886.31;4993847;28;20251;-83
2023/02/26 10:08:46;;;;;;;2.23;1.27;;;;;;;3.84;84.32;98902.97;5011784;28;20234;-83
2023/02/26 10:11:17;;;;;;;1.60;1.50;;;;;;;4.43;83.40;98903.28;5008781;28;20251;-85
2023/02/26 10:14:01;;;;;;;1.43;1.10;;;;;;;4.12;84.22;98923.31;5012579;28;20190;-83
2023/02/26 10:16:33;;;;;;;2.30;1.47;;;;;;;4.06;82.17;98924.13;4985916;28;21227;-83
2023/02/26 10:19:09;;;;;;;3.17;1.40;;;;;;;4.31;81.22;98904.88;4992272;28;20287;-81
2023/02/26 10:21:51;;;;;;;1.70;1.23;;;;;;;4.77;79.82;98922.81;4994095;28;20627;-84
2023/02/26 10:24:25;;;;;;;1.37;1.20;;;;;;;4.77;79.57;98907.69;4996172;28;20321;-84
2023/02/26 10:30:02;;;;;;;2.00;1.30;;;;;;;4.81;80.17;98919.56;5014089;28;20734;-82
2023/02/26 10:32:36;;;;;;;1.40;1.30;;;;;;;4.81;80.32;98908.94;4986999;28;20240;-86
2023/02/26 10:35:14;;;;;;;1.77;0.90;;;;;;;4.64;79.76;98904.19;5014501;28;20557;-81
2023/02/26 10:38:07;;;;;;;1.93;1.23;;;;;;;5.70;74.63;98912.09;4988232;28;20730;-86
2023/02/26 10:40:49;;;;;;;1.07;0.93;;;;;;;5.51;72.54;98909.44;5014150;28;20311;-84
2023/02/26 10:43:39;;;;;;;1.30;1.20;;;;;;;5.14;71.99;98932.09;5018079;28;20206;-86
2023/02/26 10:46:29;;;;;;;1.00;0.90;;;;;;;5.25;73.19;98929.66;4980508;28;20890;-85
2023/02/26 10:49:19;;;;;;;1.50;1.03;;;;;;;5.24;72.47;98928.03;5010742;28;20213;-83
2023/02/26 10:51:55;;;;;;;1.20;0.90;;;;;;;5.82;70.24;98928.25;5013366;28;20186;-86
2023/02/26 10:54:28;;;;;;;1.67;1.10;;;;;;;6.15;67.78;98926.41;5005873;28;20317;-83
2023/02/26 10:57:26;;;;;;;1.40;0.90;;;;;;;6.60;67.17;98923.78;4985853;28;20190;-85
2023/02/26 10:59:53;;;;;;;0.80;0.70;;;;;;;6.34;65.57;98921.22;4986987;28;20544;-84
2023/02/26 11:02:43;;;;;;;1.20;0.90;;;;;;;5.93;65.33;98929.47;5016529;28;20202;-84
2023/02/26 11:05:21;;;;;;;0.70;0.70;;;;;;;5.72;64.33;98930.50;5000609;28;20185;-84
2023/02/26 11:07:56;;;;;;;0.77;0.73;;;;;;;5.69;65.09;98928.25;4985504;28;20230;-86
2023/02/26 11:10:25;;;;;;;1.00;0.90;;;;;;;5.69;66.68;98928.25;5002344;28;20198;-83
2023/02/26 11:13:04;;;;;;;1.47;1.00;;;;;;;4.98;67.55;98914.72;5013867;28;20204;-86
2023/02/26 11:15:31;;;;;;;3.40;0.90;;;;;;;4.89;67.35;98923.88;4990194;28;20708;-85
2023/02/26 11:18:03;;;;;;;0.80;0.73;;;;;;;4.85;65.89;98922.66;4982997;28;20204;-85
2023/02/26 11:20:37;;;;;;;0.80;0.70;;;;;;;5.26;67.22;98931.31;4998824;28;20308;-83
2023/02/26 11:23:22;;;;;;;1.00;0.90;;;;;;;5.49;66.31;98924.78;5014564;28;20197;-83
2023/02/26 11:25:58;;;;;;;2.27;1.20;;;;;;;6.56;65.67;98917.25;4982740;28;20213;-83
2023/02/26 11:28:49;;;;;;;0.93;0.93;;;;;;;5.98;64.09;98935.81;5014833;28;20219;-83
2023/02/26 11:31:19;;;;;;;1.73;0.93;;;;;;;5.28;64.83;98931.09;5009846;28;20209;-84
2023/02/26 11:33:56;;;;;;;2.70;1.60;;;;;;;6.27;62.40;98937.19;4996090;28;20205;-86
2023/02/26 11:36:25;;;;;;;0.87;0.83;;;;;;;5.91;62.07;98928.88;4994447;28;20248;-85
2023/02/26 11:39:17;;;;;;;1.00;0.90;;;;;;;5.71;62.64;98931.53;5000889;28;22343;-83
2023/02/26 11:41:51;;;;;;;0.83;0.70;;;;;;;5.55;63.24;98926.63;5017582;28;20234;-84
2023/02/26 11:44:46;;;;;;;1.10;0.90;;;;;;;5.78;67.22;98928.88;5000977;28;20333;-82
2023/02/26 11:47:15;;;;;;;1.10;0.70;;;;;;;5.32;69.05;98938.44;5007941;28;20190;-86
2023/02/26 11:49:48;;;;;;;0.80;0.80;;;;;;;5.03;71.32;98930.03;4999287;28;20969;-86
2023/02/26 11:52:33;;;;;;;0.73;0.70;;;;;;;5.29;71.70;98940.69;4995103;28;20197;-82
2023/02/26 11:55:03;;;;;;;1.27;0.90;;;;;;;5.21;72.62;98938.25;5013724;28;20256;-86
2023/02/26 11:57:32;;;;;;;1.10;1.00;;;;;;;5.34;72.34;98932.94;5015452;28;20205;-83
2023/02/26 12:00:17;;;;;;;1.30;0.90;;;;;;;5.30;72.27;98939.69;4981025;28;20207;-85
2023/02/26 12:02:50;;;;;;;0.83;0.83;;;;;;;5.98;69.99;98946.44;5011757;28;20205;-84
2023/02/26 12:05:21;;;;;;;0.83;0.83;;;;;;;6.03;70.28;98948.50;4979783;28;20232;-85
2023/02/26 12:07:50;;;;;;;1.10;1.00;;;;;;;5.49;73.01;98949.50;5002396;28;20238;-86
2023/02/26 12:10:26;;;;;;;1.23;0.90;;;;;;;5.09;75.05;98953.09;5010381;28;20264;-85
2023/02/26 12:13:10;;;;;;;0.80;0.80;;;;;;;4.90;78.68;98967.16;5001103;28;20752;-81
2023/02/26 12:15:58;;;;;;;1.17;0.90;;;;;;;4.73;78.08;98964.84;4993691;28;20205;-81